Time;durP1;ratioP1;P1;durP2;ratioP2;P2;SDS_P1;SDS_P2;PMS_P1;PMS_P2;Temp;Humidity;BMP_temperature;BMP_pressure;BME280_temperature;BME280_humidity;BME280_pressure;Samples;Min_cycle;Max_cycle;Signal;HPM_P1;HPM_P2
2022/01/19 00:01:04;;;;;;;0.80;0.80;;;3.50;74.20;2.50;99785.00;;;;5117373;28;20190;-78
2022/01/19 00:03:30;;;;;;;1.07;1.00;;;3.30;74.60;2.40;99779.00;;;;5117058;28;20573;-78
2022/01/19 00:05:57;;;;;;;0.90;0.90;;;3.30;75.00;2.30;99784.00;;;;5117142;28;20221;-77
2022/01/19 00:08:26;;;;;;;0.90;0.90;;;3.20;75.60;2.10;99763.00;;;;5117111;28;20209;-78
2022/01/19 00:10:55;;;;;;;1.50;1.40;;;3.20;75.80;2.20;99752.00;;;;5117007;28;20209;-78
2022/01/19 00:13:22;;;;;;;0.80;0.80;;;3.10;76.50;2.20;99743.00;;;;5117266;28;20723;-78
2022/01/19 00:15:52;;;;;;;1.23;1.23;;;3.10;76.90;2.00;99745.00;;;;5116899;28;20201;-77
2022/01/19 00:18:22;;;;;;;0.73;0.73;;;2.90;76.80;1.90;99741.00;;;;5099161;28;20689;-78
2022/01/19 00:20:50;;;;;;;1.23;1.23;;;2.80;77.00;1.90;99736.00;;;;5116752;28;20223;-75
2022/01/19 00:23:18;;;;;;;1.70;1.60;;;2.80;77.40;1.90;99731.00;;;;5116861;28;20551;-77
2022/01/19 00:25:47;;;;;;;1.20;1.20;;;2.70;78.30;1.60;99733.00;;;;5116794;28;20194;-77
2022/01/19 00:28:16;;;;;;;1.60;1.50;;;2.70;78.50;1.50;99740.00;;;;5116786;28;20239;-76
2022/01/19 00:30:45;;;;;;;1.30;1.23;;;2.60;78.80;1.60;99744.00;;;;5116616;28;20247;-77
2022/01/19 00:33:13;;;;;;;0.90;0.90;;;2.50;80.20;1.50;99751.00;;;;5116663;28;20216;-77
2022/01/19 00:35:40;;;;;;;1.60;1.50;;;2.50;80.60;1.50;99752.00;;;;5098992;28;20583;-78
2022/01/19 00:38:08;;;;;;;4.33;1.20;;;2.50;81.80;1.50;99762.00;;;;5116709;28;20319;-77
2022/01/19 00:40:39;;;;;;;1.20;1.20;;;2.40;81.10;1.50;99770.00;;;;5116621;28;20214;-77
2022/01/19 00:43:06;;;;;;;2.20;2.00;;;2.40;82.30;1.20;99772.00;;;;5116615;28;20209;-78
2022/01/19 00:45:34;;;;;;;0.77;0.77;;;2.30;82.10;1.40;99727.00;;;;5116672;28;20641;-78
2022/01/19 00:48:01;;;;;;;1.07;1.07;;;2.30;82.40;1.20;99763.00;;;;5116678;28;20300;-78
2022/01/19 00:50:30;;;;;;;1.80;1.70;;;2.30;82.30;1.30;99752.00;;;;5116677;28;20342;-78
2022/01/19 00:52:59;;;;;;;0.90;0.90;;;2.30;83.10;1.20;99762.00;;;;5116440;28;20674;-78
2022/01/19 00:55:27;;;;;;;1.37;1.33;;;2.20;82.80;1.20;99756.00;;;;5116408;28;20224;-76
2022/01/19 00:57:57;;;;;;;0.80;0.80;;;2.20;83.60;1.30;99761.00;;;;5125201;28;20255;-78
2022/01/19 01:00:28;;;;;;;1.20;1.20;;;2.20;83.70;1.30;99762.00;;;;5128748;28;20245;-77
2022/01/19 01:02:55;;;;;;;1.07;1.07;;;2.20;83.50;1.10;99739.00;;;;5124181;28;20197;-77
2022/01/19 01:05:25;;;;;;;1.50;1.40;;;2.10;83.50;1.10;99752.00;;;;5117566;28;20202;-76
2022/01/19 01:07:52;;;;;;;1.10;1.10;;;2.10;84.10;1.10;99747.00;;;;5116596;28;20227;-77
2022/01/19 01:10:20;;;;;;;1.10;1.10;;;2.00;84.50;1.10;99760.00;;;;5116110;28;20224;-77
2022/01/19 01:12:48;;;;;;;1.70;1.60;;;2.00;85.30;1.00;99757.00;;;;5099348;28;20547;-79
2022/01/19 01:15:37;;;;;;;1.13;1.13;;;2.00;85.40;1.00;99758.00;;;;5125961;28;20201;-78
2022/01/19 01:18:18;;;;;;;0.70;0.70;;;2.00;85.90;0.90;99756.00;;;;5117127;28;20207;-77
2022/01/19 01:20:49;;;;;;;1.47;1.37;;;1.90;86.30;0.80;99744.00;;;;5118728;28;20238;-78
2022/01/19 01:23:17;;;;;;;1.37;1.30;;;1.80;86.50;0.70;99733.00;;;;5116843;28;20217;-76
2022/01/19 01:25:44;;;;;;;1.80;1.70;;;1.70;86.60;0.70;99722.00;;;;5116866;28;20230;-77
2022/01/19 01:28:10;;;;;;;2.20;1.20;;;1.70;87.40;0.70;99705.00;;;;5116105;28;20335;-77
2022/01/19 01:30:38;;;;;;;1.13;1.13;;;1.70;87.50;0.70;99700.00;;;;5115804;28;20311;-77
2022/01/19 01:33:07;;;;;;;1.47;1.47;;;1.70;87.70;0.80;99696.00;;;;5115591;28;20245;-77
2022/01/19 01:35:34;;;;;;;1.27;1.20;;;1.70;88.10;0.80;99698.00;;;;5115643;28;20228;-77
2022/01/19 01:38:02;;;;;;;1.37;1.27;;;1.70;87.80;0.70;99711.00;;;;5115567;28;20198;-75
2022/01/19 01:40:33;;;;;;;1.20;1.20;;;1.70;87.50;0.70;99673.00;;;;5115813;28;20256;-77
2022/01/19 01:43:01;;;;;;;1.37;1.27;;;1.60;87.70;0.60;99728.00;;;;5115607;28;20197;-77
2022/01/19 01:45:32;;;;;;;1.23;1.23;;;1.60;88.40;0.50;99736.00;;;;5097444;28;20643;-77
2022/01/19 01:48:09;;;;;;;2.47;1.17;;;1.50;87.50;0.50;99729.00;;;;5097555;28;20594;-77
2022/01/19 01:53:28;;;;;;;1.83;1.73;;;1.50;88.40;0.60;99706.00;;;;5115615;28;20224;-77
2022/01/19 01:56:04;;;;;;;1.13;1.13;;;1.50;88.70;0.50;99706.00;;;;5115360;28;20201;-77
2022/01/19 01:58:34;;;;;;;1.63;1.53;;;1.50;88.40;0.50;99689.00;;;;5115285;28;20217;-77
2022/01/19 02:01:01;;;;;;;1.07;1.07;;;1.50;88.60;0.60;99684.00;;;;5115364;28;20203;-77
2022/01/19 02:03:28;;;;;;;1.03;1.03;;;1.50;88.60;0.50;99694.00;;;;5115252;28;20183;-77
2022/01/19 02:08:45;;;;;;;1.33;1.33;;;1.40;88.50;0.40;99685.00;;;;5097916;28;20211;-78
2022/01/19 02:15:49;;;;;;;2.37;0.97;;;1.40;88.60;0.40;99682.00;;;;5115159;28;20223;-75
2022/01/19 02:23:02;;;;;;;1.23;1.20;;;1.20;89.70;0.30;99662.00;;;;5115005;28;20213;-77
2022/01/19 02:25:35;;;;;;;1.53;1.27;;;1.30;89.80;0.30;99653.00;;;;5114930;28;20223;-77
2022/01/19 02:41:54;;;;;;;5.43;2.20;;;1.20;90.30;0.20;99626.00;;;;5114801;28;20191;-77
2022/01/19 02:44:36;;;;;;;1.77;1.50;;;1.20;90.50;0.20;99621.00;;;;5114619;28;20218;-77
2022/01/19 02:49:52;;;;;;;2.20;2.10;;;1.20;89.80;0.20;99594.00;;;;5115284;28;20203;-77
2022/01/19 02:52:21;;;;;;;1.60;1.10;;;1.20;89.50;0.10;99590.00;;;;5114731;28;20245;-76
2022/01/19 02:54:49;;;;;;;1.80;1.70;;;1.10;89.50;0.10;99574.00;;;;5114769;28;20219;-76
2022/01/19 02:57:17;;;;;;;0.80;0.80;;;1.10;89.70;0.10;99565.00;;;;5096681;28;20208;-76
2022/01/19 03:06:14;;;;;;;1.43;1.33;;;1.00;89.50;0.00;99566.00;;;;5114375;28;20216;-77
2022/01/19 03:10:46;;;;;;;1.37;1.37;;;1.00;91.50;0.00;99537.00;;;;5114283;28;20189;-77
2022/01/19 03:13:12;;;;;;;1.70;1.60;;;1.00;91.60;0.00;99544.00;;;;5114320;28;20226;-77
2022/01/19 03:15:39;;;;;;;1.97;1.87;;;1.00;92.00;0.00;99535.00;;;;5114343;28;20763;-77
2022/01/19 03:18:06;;;;;;;1.10;1.10;;;1.00;92.00;0.00;99528.00;;;;5114386;28;20287;-76
2022/01/19 03:20:33;;;;;;;1.40;1.33;;;1.10;92.30;0.00;99534.00;;;;5114317;28;20237;-76
2022/01/19 03:23:03;;;;;;;3.17;1.83;;;1.10;93.20;0.10;99530.00;;;;5114296;28;20229;-76
2022/01/19 03:25:36;;;;;;;1.33;1.33;;;1.10;92.60;0.10;99531.00;;;;5114196;28;20226;-76
2022/01/19 03:28:03;;;;;;;0.93;0.93;;;1.10;92.60;0.10;99525.00;;;;5116025;28;20680;-76
2022/01/19 03:30:30;;;;;;;1.77;1.67;;;1.10;92.20;0.10;99532.00;;;;5117721;28;20186;-76
2022/01/19 03:32:57;;;;;;;1.87;1.37;;;1.10;91.70;0.00;99533.00;;;;5117637;28;20320;-77
2022/01/19 03:35:23;;;;;;;1.07;1.07;;;0.90;91.20;0.00;99520.00;;;;5117790;28;20194;-77
2022/01/19 03:37:50;;;;;;;0.90;0.90;;;1.00;91.00;-0.10;99486.00;;;;5117771;28;20200;-76
2022/01/19 03:40:18;;;;;;;0.90;0.90;;;0.90;90.20;-0.20;99520.00;;;;5099974;28;20195;-77
2022/01/19 03:42:44;;;;;;;1.80;1.57;;;0.80;90.80;-0.30;99513.00;;;;5117718;28;20335;-78
2022/01/19 03:45:11;;;;;;;2.03;1.93;;;0.70;90.70;-0.20;99517.00;;;;5117540;28;20232;-77
2022/01/19 03:47:42;;;;;;;0.83;0.83;;;0.70;91.10;-0.30;99505.00;;;;5117620;28;20216;-77
2022/01/19 03:50:11;;;;;;;1.07;1.07;;;0.80;91.00;-0.20;99502.00;;;;5099514;28;20199;-77
2022/01/19 03:52:38;;;;;;;1.60;1.50;;;0.80;91.20;-0.20;99496.00;;;;5117311;28;20309;-76
2022/01/19 03:55:08;;;;;;;1.53;1.43;;;0.70;91.30;-0.30;99485.00;;;;5117540;28;20218;-76
2022/01/19 03:57:35;;;;;;;1.10;1.10;;;0.70;91.30;-0.30;99487.00;;;;5117485;28;20190;-76
2022/01/19 04:00:04;;;;;;;2.10;1.60;;;0.70;91.20;-0.30;99485.00;;;;5117319;28;20308;-76
2022/01/19 04:02:30;;;;;;;1.23;1.23;;;0.70;92.00;-0.30;99482.00;;;;5117374;28;20197;-77
2022/01/19 04:05:02;;;;;;;1.37;1.37;;;0.70;91.00;-0.30;99485.00;;;;5099331;28;20283;-76
2022/01/19 04:07:29;;;;;;;1.63;1.63;;;0.60;91.20;-0.40;99492.00;;;;5117248;28;20198;-77
2022/01/19 04:09:56;;;;;;;1.20;1.20;;;0.60;90.80;-0.40;99494.00;;;;5117138;28;20213;-76
2022/01/19 04:12:41;;;;;;;1.77;1.67;;;0.60;91.20;-0.50;99492.00;;;;5116989;28;20236;-76
2022/01/19 04:15:09;;;;;;;1.33;1.27;;;0.50;91.10;-0.40;99476.00;;;;5117077;28;20646;-78
2022/01/19 04:17:42;;;;;;;1.40;1.40;;;0.60;91.50;-0.30;99467.00;;;;5117067;28;20198;-76
2022/01/19 04:20:11;;;;;;;1.43;1.43;;;0.60;91.40;-0.40;99468.00;;;;5117057;28;20216;-76
2022/01/19 04:22:37;;;;;;;4.37;2.00;;;0.60;91.10;-0.40;99467.00;;;;5117057;28;20218;-77
2022/01/19 04:25:06;;;;;;;1.10;1.10;;;0.60;91.40;-0.30;99427.00;;;;5116930;28;20210;-78
2022/01/19 04:27:32;;;;;;;1.10;1.07;;;0.60;91.40;-0.30;99463.00;;;;5116965;28;20285;-78
2022/01/19 04:30:08;;;;;;;2.47;2.27;;;0.60;91.00;-0.70;99466.00;;;;5116852;28;20217;-77
2022/01/19 04:32:42;;;;;;;1.40;1.40;;;0.60;90.50;-0.60;99448.00;;;;5116708;28;20237;-77
2022/01/19 04:35:11;;;;;;;0.90;0.90;;;0.50;90.80;-0.60;99457.00;;;;5116755;28;20215;-79
2022/01/19 04:37:51;;;;;;;1.60;1.47;;;0.50;91.00;-0.60;99449.00;;;;5116637;28;20201;-78
2022/01/19 04:46:20;;;;;;;1.67;1.57;;;0.50;91.10;-0.50;99425.00;;;;5117100;28;20214;-77
2022/01/19 05:02:54;;;;;;;1.93;1.83;;;0.60;92.80;-0.50;99402.00;;;;5117236;28;20711;-77
2022/01/19 05:05:26;;;;;;;12.47;2.10;;;0.50;92.60;-0.50;99399.00;;;;5116430;28;20245;-77
2022/01/19 05:07:58;;;;;;;2.73;2.47;;;0.60;92.90;-0.30;99404.00;;;;5127519;28;20175;-76
2022/01/19 05:13:32;;;;;;;1.50;1.47;;;0.60;92.70;-0.50;99408.00;;;;5117424;28;20230;-78
2022/01/19 05:15:59;;;;;;;1.40;1.20;;;0.60;92.90;-0.50;99406.00;;;;5116576;28;20194;-77
2022/01/19 05:18:28;;;;;;;1.33;1.33;;;0.50;93.20;-0.40;99397.00;;;;5115855;28;20219;-76
2022/01/19 05:20:55;;;;;;;2.00;1.47;;;0.70;93.50;-0.40;99396.00;;;;5116049;28;20226;-76
2022/01/19 05:23:22;;;;;;;2.17;1.77;;;0.60;93.10;-0.40;99384.00;;;;5116021;28;20276;-77
2022/01/19 05:25:49;;;;;;;2.30;2.13;;;0.60;93.10;-0.40;99376.00;;;;5116004;28;20297;-77
2022/01/19 05:28:16;;;;;;;1.30;1.30;;;0.60;93.20;-0.40;99383.00;;;;5097974;28;20680;-77
2022/01/19 05:30:43;;;;;;;1.93;1.83;;;0.60;93.30;-0.30;99373.00;;;;5115839;28;20198;-77
2022/01/19 05:33:10;;;;;;;1.10;1.10;;;0.70;93.40;-0.40;99381.00;;;;5115720;28;20430;-77
2022/01/19 05:35:36;;;;;;;1.00;1.00;;;0.70;93.40;-0.40;99375.00;;;;5115957;28;20356;-76
2022/01/19 05:38:04;;;;;;;1.37;1.27;;;0.70;93.40;-0.30;99379.00;;;;5115587;28;20226;-75
2022/01/19 05:40:30;;;;;;;2.53;2.37;;;0.70;93.60;-0.30;99370.00;;;;5115728;28;20284;-76
2022/01/19 05:42:57;;;;;;;1.37;1.30;;;0.70;93.30;-0.30;99361.00;;;;5115760;28;20621;-78
2022/01/19 05:45:24;;;;;;;1.37;1.27;;;0.70;93.30;-0.30;99362.00;;;;5115594;28;20304;-77
2022/01/19 05:47:51;;;;;;;2.07;1.63;;;0.70;93.40;-0.30;99347.00;;;;5115582;28;20198;-77
2022/01/19 05:50:20;;;;;;;1.90;1.80;;;0.70;93.20;-0.30;99352.00;;;;5114699;28;20285;-78
2022/01/19 05:52:47;;;;;;;2.33;1.77;;;0.70;92.90;-0.40;99350.00;;;;5115385;28;20342;-77
2022/01/19 05:55:14;;;;;;;1.63;1.07;;;0.70;92.60;-0.50;99349.00;;;;5115526;28;20201;-77
2022/01/19 05:57:41;;;;;;;7.83;1.93;;;0.70;92.50;-0.50;99355.00;;;;5115368;28;20273;-77
2022/01/19 06:00:09;;;;;;;2.57;2.47;;;0.60;92.40;-0.40;99352.00;;;;5115479;28;20293;-76
2022/01/19 06:02:38;;;;;;;1.00;1.00;;;0.60;93.50;-0.30;99350.00;;;;5115665;28;20208;-77
2022/01/19 06:05:07;;;;;;;2.40;2.20;;;0.70;92.70;-0.40;99349.00;;;;5115292;28;20309;-76
2022/01/19 06:07:41;;;;;;;1.17;1.07;;;0.70;92.30;-0.40;99352.00;;;;5115422;28;20209;-77
2022/01/19 06:10:11;;;;;;;1.07;1.07;;;0.60;92.40;-0.40;99324.00;;;;5115360;28;20217;-75
2022/01/19 06:12:38;;;;;;;0.90;0.87;;;0.70;92.50;-0.40;99364.00;;;;5115229;28;20316;-77
2022/01/19 06:15:07;;;;;;;1.07;1.07;;;0.70;92.30;-0.30;99343.00;;;;5115294;28;20198;-77
2022/01/19 06:17:34;;;;;;;4.83;2.30;;;0.60;92.20;-0.50;99345.00;;;;5115178;28;20265;-76
2022/01/19 06:20:00;;;;;;;1.10;1.10;;;0.60;91.90;-0.40;99347.00;;;;5115185;28;20636;-75
2022/01/19 06:22:29;;;;;;;2.63;2.43;;;0.50;91.30;-0.60;99350.00;;;;5114931;28;20206;-74
2022/01/19 06:24:57;;;;;;;1.43;1.43;;;0.40;90.60;-0.80;99345.00;;;;5114908;28;20352;-76
2022/01/19 06:27:24;;;;;;;2.63;2.13;;;0.30;90.20;-0.70;99355.00;;;;5114894;28;20218;-74
2022/01/19 06:29:51;;;;;;;2.17;2.03;;;0.30;90.60;-0.70;99352.00;;;;5096965;28;20198;-74
2022/01/19 06:32:18;;;;;;;1.57;1.47;;;0.30;90.40;-0.70;99361.00;;;;5114603;28;20741;-75
2022/01/19 06:34:45;;;;;;;2.37;2.27;;;0.30;90.10;-0.80;99369.00;;;;5114794;28;20577;-74
2022/01/19 06:37:11;;;;;;;1.33;1.33;;;0.20;90.80;-0.80;99366.00;;;;5114873;28;20240;-76
2022/01/19 06:39:42;;;;;;;2.30;2.10;;;0.20;90.20;-1.00;99361.00;;;;5114742;28;20204;-75
2022/01/19 06:42:09;;;;;;;1.37;1.37;;;0.20;90.50;-0.80;99349.00;;;;5114686;28;20274;-75
2022/01/19 06:44:35;;;;;;;2.43;2.27;;;0.20;90.70;-0.80;99350.00;;;;5114749;28;20209;-77
2022/01/19 06:47:03;;;;;;;2.43;2.10;;;0.10;91.00;-0.70;99337.00;;;;5114951;28;20243;-76
2022/01/19 06:49:30;;;;;;;2.50;1.57;;;0.20;91.10;-0.80;99344.00;;;;5114839;28;20201;-76
2022/01/19 06:51:56;;;;;;;1.77;1.67;;;0.20;90.60;-0.80;99338.00;;;;5114554;28;20370;-75
2022/01/19 06:54:23;;;;;;;2.30;2.10;;;0.10;90.60;-0.80;99328.00;;;;5096596;28;20293;-76
2022/01/19 06:56:49;;;;;;;1.87;1.73;;;0.10;90.70;-0.90;99329.00;;;;5114518;28;20230;-75
2022/01/19 06:59:16;;;;;;;2.67;2.50;;;0.10;90.60;-1.00;99338.00;;;;5114390;28;20254;-74
2022/01/19 07:01:42;;;;;;;1.60;1.50;;;0.00;90.50;-1.00;99337.00;;;;5114317;28;20204;-76
2022/01/19 07:04:11;;;;;;;1.37;1.37;;;0.00;91.10;-0.90;99339.00;;;;5114434;28;20312;-76
2022/01/19 07:06:38;;;;;;;4.33;1.70;;;0.10;91.40;-0.90;99343.00;;;;5114511;28;20206;-75
2022/01/19 07:09:04;;;;;;;1.67;1.57;;;0.10;91.60;-0.90;99332.00;;;;5114288;28;20272;-75
2022/01/19 07:11:36;;;;;;;1.17;1.17;;;0.20;91.70;-0.80;99332.00;;;;5114314;28;20433;-76
2022/01/19 07:14:03;;;;;;;1.40;1.40;;;0.20;91.60;-0.80;99329.00;;;;5114333;28;20291;-76
2022/01/19 07:16:29;;;;;;;1.53;1.43;;;0.30;91.60;-0.80;99325.00;;;;5114252;28;20475;-76
2022/01/19 07:18:56;;;;;;;1.60;1.33;;;0.20;91.40;-0.80;99307.00;;;;5114149;28;20300;-75
2022/01/19 07:21:23;;;;;;;1.40;1.40;;;0.20;91.70;-0.80;99320.00;;;;5114114;28;20271;-76
2022/01/19 07:23:52;;;;;;;1.17;1.17;;;0.20;91.90;-0.70;99321.00;;;;5114152;28;20623;-75
2022/01/19 07:26:18;;;;;;;1.63;1.53;;;0.20;92.10;-0.70;99320.00;;;;5114131;28;20280;-76
2022/01/19 07:28:45;;;;;;;1.50;1.47;;;0.30;92.70;-0.60;99321.00;;;;5114150;28;20194;-77
2022/01/19 07:31:11;;;;;;;2.43;2.17;;;0.40;92.00;-0.60;99311.00;;;;5114045;28;20249;-78
2022/01/19 07:33:38;;;;;;;1.37;1.37;;;0.40;91.80;-0.50;99314.00;;;;5114147;28;20399;-77
2022/01/19 07:36:05;;;;;;;2.30;2.10;;;0.40;91.80;-0.60;99305.00;;;;5113964;28;20278;-76
2022/01/19 07:38:32;;;;;;;1.17;1.17;;;0.40;91.60;-0.50;99320.00;;;;5113767;28;20284;-76
2022/01/19 07:40:59;;;;;;;1.70;1.33;;;0.50;91.70;-0.50;99307.00;;;;5113993;28;20198;-77
2022/01/19 07:43:28;;;;;;;1.43;1.33;;;0.50;91.60;-0.50;99290.00;;;;5114006;28;20194;-76
2022/01/19 07:45:54;;;;;;;2.37;1.57;;;0.50;91.60;-0.40;99306.00;;;;5113663;28;20287;-76
2022/01/19 07:48:21;;;;;;;1.83;1.73;;;0.60;91.50;-0.30;99293.00;;;;5113803;28;20241;-77
2022/01/19 07:50:47;;;;;;;1.57;1.47;;;0.60;91.30;-0.20;99298.00;;;;5113796;28;20299;-83
2022/01/19 07:53:14;;;;;;;1.47;1.37;;;0.70;91.20;-0.20;99305.00;;;;5113915;28;20223;-79
2022/01/19 07:55:42;;;;;;;1.40;1.40;;;0.70;91.00;-0.20;99289.00;;;;5113845;28;20279;-76
2022/01/19 07:58:10;;;;;;;1.53;1.40;;;0.70;90.90;-0.20;99291.00;;;;5113612;28;20211;-72
2022/01/19 08:00:38;;;;;;;1.50;1.37;;;0.80;90.90;-0.10;99287.00;;;;5113700;28;20203;-74
2022/01/19 08:03:05;;;;;;;2.03;1.83;;;0.80;91.10;-0.10;99289.00;;;;5113531;28;20666;-75
2022/01/19 08:05:31;;;;;;;2.03;1.93;;;0.80;90.80;0.00;99281.00;;;;5095617;28;20724;-75
2022/01/19 08:08:02;;;;;;;3.03;1.73;;;0.90;90.90;-0.10;99283.00;;;;5113531;28;20262;-74
2022/01/19 08:10:29;;;;;;;1.87;1.77;;;1.00;90.60;0.00;99280.00;;;;5113548;28;20222;-75
2022/01/19 08:13:03;;;;;;;2.20;2.00;;;1.00;90.80;0.10;99283.00;;;;5095919;28;20222;-73
2022/01/19 08:15:31;;;;;;;2.90;2.43;;;1.00;90.60;0.10;99289.00;;;;5117169;28;20232;-74
2022/01/19 08:17:57;;;;;;;1.60;1.50;;;1.10;90.60;0.20;99289.00;;;;5099116;28;20257;-74
2022/01/19 08:20:24;;;;;;;1.83;1.73;;;1.10;90.50;0.30;99293.00;;;;5116580;28;20630;-74
2022/01/19 08:22:51;;;;;;;1.97;1.87;;;1.20;90.50;0.30;99289.00;;;;5116634;28;20223;-73
2022/01/19 08:25:18;;;;;;;2.97;2.77;;;1.20;90.00;0.30;99284.00;;;;5116921;28;20221;-75
2022/01/19 08:27:44;;;;;;;1.53;1.43;;;1.30;90.20;0.40;99275.00;;;;5116754;28;20190;-75
2022/01/19 08:30:15;;;;;;;1.87;1.77;;;1.30;90.20;0.40;99276.00;;;;5116533;28;20654;-74
2022/01/19 08:32:46;;;;;;;3.50;2.23;;;1.30;90.00;0.40;99283.00;;;;5116695;28;20313;-76
2022/01/19 08:35:13;;;;;;;1.63;1.63;;;1.40;90.00;0.40;99287.00;;;;5116905;28;20254;-75
2022/01/19 08:37:40;;;;;;;3.73;2.87;;;1.40;89.70;0.40;99289.00;;;;5116601;28;20227;-75
2022/01/19 08:40:08;;;;;;;1.63;1.53;;;1.40;89.40;0.50;99285.00;;;;5116823;28;20203;-75
2022/01/19 08:42:37;;;;;;;2.50;2.40;;;1.40;89.40;0.40;99298.00;;;;5116611;28;20200;-75
2022/01/19 08:45:07;;;;;;;4.27;2.13;;;1.40;89.20;0.60;99296.00;;;;5116554;28;20227;-76
2022/01/19 08:47:36;;;;;;;4.90;2.83;;;1.50;89.50;0.50;99293.00;;;;5117468;28;20223;-75
2022/01/19 08:50:05;;;;;;;2.67;2.30;;;1.50;89.10;0.60;99294.00;;;;5116758;28;20210;-74
2022/01/19 08:52:31;;;;;;;2.33;2.23;;;1.50;88.80;0.80;99298.00;;;;5116531;28;20223;-75
2022/01/19 08:55:00;;;;;;;1.00;1.00;;;1.70;88.20;1.00;99289.00;;;;5116498;28;20204;-75
2022/01/19 08:57:30;;;;;;;1.37;1.27;;;1.80;87.50;0.90;99280.00;;;;5116433;28;20261;-73
2022/01/19 08:59:57;;;;;;;1.87;1.77;;;1.80;87.40;0.80;99284.00;;;;5124925;28;20308;-75
2022/01/19 09:02:23;;;;;;;2.13;1.93;;;1.80;87.30;0.90;99285.00;;;;5128751;28;20523;-73
2022/01/19 09:04:51;;;;;;;3.60;1.63;;;1.80;87.60;1.10;99227.00;;;;5107585;28;20203;-74
2022/01/19 09:07:19;;;;;;;2.50;2.33;;;1.90;87.40;1.10;99261.00;;;;5117433;28;20255;-74
2022/01/19 09:09:48;;;;;;;1.90;1.80;;;1.90;87.40;1.00;99289.00;;;;5116876;28;20196;-75
2022/01/19 09:12:14;;;;;;;0.97;0.97;;;1.90;87.20;1.10;99280.00;;;;5115968;28;20228;-75
2022/01/19 09:14:43;;;;;;;1.80;1.70;;;2.00;87.40;1.20;99292.00;;;;5124552;28;20201;-74
2022/01/19 09:17:10;;;;;;;1.27;1.27;;;2.10;87.60;1.50;99290.00;;;;5128454;28;20629;-76
2022/01/19 09:19:39;;;;;;;1.10;1.10;;;2.20;86.70;1.40;99272.00;;;;5123349;28;20238;-75
2022/01/19 09:22:10;;;;;;;1.90;1.80;;;2.30;86.00;1.30;99285.00;;;;5116493;28;20168;-74
2022/01/19 09:24:39;;;;;;;1.33;1.33;;;2.20;85.80;1.40;99284.00;;;;5096986;28;20237;-75
2022/01/19 09:27:09;;;;;;;0.80;0.80;;;2.30;85.90;1.60;99288.00;;;;5115962;28;20197;-75
2022/01/19 09:29:38;;;;;;;1.67;1.57;;;2.40;86.30;1.50;99282.00;;;;5115957;28;20207;-74
2022/01/19 09:32:07;;;;;;;1.57;1.47;;;2.40;85.50;1.70;99277.00;;;;5115720;28;20603;-75
2022/01/19 09:34:34;;;;;;;3.47;1.63;;;2.50;84.90;1.70;99271.00;;;;5115994;28;20253;-75
2022/01/19 09:37:04;;;;;;;1.17;1.03;;;2.50;84.80;1.80;99283.00;;;;5115711;28;20201;-74
2022/01/19 09:39:33;;;;;;;1.00;1.00;;;2.60;84.10;1.80;99281.00;;;;5115801;28;20207;-75
2022/01/19 09:42:00;;;;;;;1.67;1.57;;;2.60;84.10;1.80;99275.00;;;;5115769;28;20299;-75
2022/01/19 09:44:29;;;;;;;1.40;1.30;;;2.60;84.20;1.70;99269.00;;;;5115628;28;20778;-77
2022/01/19 09:46:56;;;;;;;1.97;1.43;;;2.70;84.30;1.80;99217.00;;;;5115556;28;20269;-75
2022/01/19 09:49:23;;;;;;;1.10;1.10;;;2.70;85.20;2.00;99256.00;;;;5115898;28;20269;-76
2022/01/19 09:51:54;;;;;;;3.97;2.27;;;2.80;83.70;1.90;99262.00;;;;5115551;28;20239;-75
2022/01/19 09:54:29;;;;;;;1.90;1.63;;;2.80;83.10;2.10;99250.00;;;;5116405;28;20203;-77
2022/01/19 09:56:57;;;;;;;1.13;1.13;;;2.80;83.00;2.00;99253.00;;;;5115521;28;20249;-75
2022/01/19 09:59:25;;;;;;;4.47;2.13;;;2.90;81.90;2.10;99254.00;;;;5115491;28;20311;-76
2022/01/19 10:01:54;;;;;;;2.40;2.20;;;2.90;81.80;2.20;99243.00;;;;5115437;28;20231;-76
2022/01/19 10:04:27;;;;;;;1.40;1.23;;;3.00;81.30;2.10;99249.00;;;;5115212;28;20201;-76
2022/01/19 10:07:12;;;;;;;1.67;1.57;;;3.10;81.10;2.10;99247.00;;;;5115143;28;20284;-76
2022/01/19 10:09:56;;;;;;;2.43;2.03;;;3.10;81.60;2.40;99236.00;;;;5115268;28;20257;-77
2022/01/19 10:18:18;;;;;;;2.10;2.00;;;3.40;79.50;2.80;99210.00;;;;5115020;28;20212;-76
2022/01/19 10:20:48;;;;;;;1.43;1.43;;;3.50;79.20;2.90;99205.00;;;;5115022;28;20191;-75
2022/01/19 10:23:40;;;;;;;1.87;1.73;;;3.70;77.30;3.00;99197.00;;;;5115344;28;20191;-77
2022/01/19 10:26:10;;;;;;;0.93;0.90;;;3.70;76.80;2.80;99185.00;;;;5115048;28;20247;-76
2022/01/19 10:29:01;;;;;;;0.93;0.93;;;3.70;75.80;2.90;99177.00;;;;5114965;28;20278;-78
2022/01/19 10:31:29;;;;;;;1.23;1.23;;;3.70;76.60;3.00;99184.00;;;;5115149;28;20189;-75
2022/01/19 10:34:15;;;;;;;2.30;2.13;;;3.80;76.70;3.10;99182.00;;;;5114887;28;20226;-75
2022/01/19 10:36:46;;;;;;;1.10;1.10;;;3.90;77.10;3.20;99183.00;;;;5114607;28;20510;-77
2022/01/19 10:39:13;;;;;;;1.53;1.43;;;3.90;77.00;3.20;99150.00;;;;5114618;28;20204;-79
2022/01/19 10:41:59;;;;;;;1.23;1.23;;;4.10;76.80;3.20;99166.00;;;;5114717;28;20234;-75
2022/01/19 10:44:33;;;;;;;0.80;0.80;;;4.00;75.10;3.30;99170.00;;;;5114868;28;20213;-77
2022/01/19 10:46:59;;;;;;;1.37;1.37;;;4.10;75.90;3.40;99154.00;;;;5114801;28;20245;-76
2022/01/19 10:49:26;;;;;;;1.20;1.20;;;4.20;75.50;3.50;99167.00;;;;5096851;28;20197;-79
2022/01/19 10:51:58;;;;;;;1.80;1.70;;;4.30;75.30;3.60;99172.00;;;;5114712;28;20359;-78
2022/01/19 10:54:26;;;;;;;1.03;1.03;;;4.40;74.60;3.80;99170.00;;;;5114823;28;20486;-78
2022/01/19 10:56:58;;;;;;;2.23;1.67;;;4.50;73.30;3.90;99163.00;;;;5114593;28;20205;-75
2022/01/19 10:59:30;;;;;;;1.47;1.37;;;4.60;73.10;3.90;99164.00;;;;5114517;28;20555;-79
2022/01/19 11:01:59;;;;;;;1.67;1.57;;;4.70;73.50;3.90;99161.00;;;;5114673;28;20243;-78
2022/01/19 11:04:29;;;;;;;1.03;1.03;;;4.70;72.30;4.00;99168.00;;;;5114612;28;20710;-79
2022/01/19 11:07:01;;;;;;;2.57;1.37;;;4.80;71.80;4.00;99162.00;;;;5114478;28;20228;-76
2022/01/19 11:09:29;;;;;;;1.20;1.20;;;4.80;71.50;4.20;99162.00;;;;5096545;28;20586;-78
2022/01/19 11:12:04;;;;;;;1.30;1.23;;;4.90;71.80;4.50;99154.00;;;;5114332;28;20222;-77
2022/01/19 11:14:35;;;;;;;1.60;1.57;;;5.10;68.60;4.30;99143.00;;;;5114365;28;20201;-79
2022/01/19 11:17:02;;;;;;;0.80;0.80;;;5.10;68.50;4.50;99158.00;;;;5114376;28;20216;-76
2022/01/19 11:19:36;;;;;;;4.17;1.67;;;5.20;68.80;4.50;99147.00;;;;5114272;28;20206;-77
2022/01/19 11:22:38;;;;;;;0.83;0.83;;;5.20;70.10;4.80;99140.00;;;;5114294;28;20267;-77
2022/01/19 11:25:22;;;;;;;1.03;1.03;;;5.50;68.30;4.80;99130.00;;;;5102041;28;20213;-76
2022/01/19 11:27:51;;;;;;;1.53;1.50;;;5.50;68.60;4.90;99132.00;;;;5114197;28;20209;-74
2022/01/19 11:30:23;;;;;;;1.20;1.17;;;5.50;68.60;5.00;99138.00;;;;5114035;28;20618;-76
2022/01/19 11:33:15;;;;;;;0.90;0.90;;;5.60;68.00;5.10;99136.00;;;;5114167;28;20545;-75
2022/01/19 11:35:47;;;;;;;1.17;1.17;;;5.70;68.50;5.20;99127.00;;;;5114036;28;20758;-75
2022/01/19 11:38:41;;;;;;;1.30;1.20;;;5.80;66.70;5.20;99124.00;;;;5114020;28;20214;-75
2022/01/19 11:41:40;;;;;;;2.43;1.77;;;5.90;68.20;5.40;99121.00;;;;5113993;28;20194;-76
2022/01/19 11:44:10;;;;;;;2.30;1.93;;;6.10;69.40;5.40;99119.00;;;;5115681;28;20222;-79
2022/01/19 11:46:43;;;;;;;1.07;1.07;;;6.20;65.40;5.50;99112.00;;;;5114293;28;20232;-78
2022/01/19 11:49:13;;;;;;;1.40;1.30;;;6.20;65.70;5.50;99091.00;;;;5116349;28;20610;-76
2022/01/19 11:51:42;;;;;;;1.63;1.53;;;6.20;66.40;5.80;99123.00;;;;5117673;28;20201;-76
2022/01/19 11:54:17;;;;;;;2.77;2.57;;;6.30;66.90;6.00;99110.00;;;;5117815;28;20190;-76
2022/01/19 11:57:10;;;;;;;3.73;2.33;;;6.50;65.10;6.30;99086.00;;;;5117329;28;20226;-74
2022/01/19 12:00:16;;;;;;;1.17;1.07;;;6.70;64.20;6.40;99089.00;;;;5117432;28;20275;-75
2022/01/19 12:02:54;;;;;;;3.53;1.77;;;6.90;62.20;6.70;99084.00;;;;5034892;28;20233;-75
2022/01/19 12:05:28;;;;;;;0.90;0.90;;;7.20;61.40;7.00;99082.00;;;;5109408;28;20355;-75
2022/01/19 12:07:59;;;;;;;0.80;0.80;;;7.50;59.20;7.40;99067.00;;;;5117245;28;20341;-76
2022/01/19 12:10:47;;;;;;;1.57;1.47;;;7.80;58.40;7.60;99071.00;;;;5099017;28;20360;-78
2022/01/19 12:13:43;;;;;;;1.13;1.13;;;8.00;55.10;7.90;99073.00;;;;5117058;28;20218;-76
2022/01/19 12:16:26;;;;;;;1.13;1.13;;;8.30;53.20;8.10;99075.00;;;;5117016;28;20222;-77
2022/01/19 12:18:55;;;;;;;1.40;1.33;;;8.50;53.50;7.70;99070.00;;;;5117027;28;20209;-76
2022/01/19 12:21:43;;;;;;;1.50;1.30;;;8.30;53.30;8.40;99063.00;;;;5116888;28;20308;-78
2022/01/19 12:24:25;;;;;;;1.27;1.27;;;8.70;53.10;9.00;99068.00;;;;5099256;28;20265;-75
2022/01/19 12:27:01;;;;;;;1.17;1.17;;;9.10;51.20;9.20;99062.00;;;;5117031;28;20632;-74
2022/01/19 12:29:47;;;;;;;0.70;0.70;;;9.40;49.30;9.50;99063.00;;;;5116865;28;20609;-77